Time;durP1;ratioP1;P1;durP2;ratioP2;P2;SDS_P1;SDS_P2;PMS_P1;PMS_P2;Temp;Humidity;BMP_temperature;BMP_pressure;BME280_temperature;BME280_humidity;BME280_pressure;Samples;Min_cycle;Max_cycle;Signal;HPM_P1;HPM_P2
2023/03/15 00:02:54;;;;;;;3.73;2.07;;;11.10;99.90;;;;;;10091605;29;20311;-87
2023/03/15 00:07:57;;;;;;;2.30;1.30;;;11.60;99.90;;;;;;10079957;29;20233;-87
2023/03/15 00:13:00;;;;;;;3.93;1.80;;;11.50;99.90;;;;;;10092561;29;20288;-87
2023/03/15 00:18:02;;;;;;;6.80;2.80;;;11.80;99.90;;;;;;10077322;29;20304;-87
2023/03/15 00:23:05;;;;;;;2.67;2.20;;;11.80;99.90;;;;;;10079010;29;20257;-87
2023/03/15 00:28:08;;;;;;;6.80;1.93;;;11.60;99.90;;;;;;10053680;29;20301;-87
2023/03/15 00:33:12;;;;;;;4.40;2.17;;;11.10;99.90;;;;;;10065324;29;20324;-87
2023/03/15 00:38:15;;;;;;;8.27;2.93;;;11.30;99.90;;;;;;10105308;29;20257;-87
2023/03/15 00:43:18;;;;;;;7.03;2.50;;;11.20;99.90;;;;;;10110569;29;20318;-87
2023/03/15 00:48:20;;;;;;;3.37;1.80;;;11.60;99.90;;;;;;10114051;29;20247;-86
2023/03/15 00:53:23;;;;;;;2.67;1.57;;;12.10;99.90;;;;;;10107493;29;20259;-86
2023/03/15 00:58:25;;;;;;;5.50;2.37;;;11.70;99.90;;;;;;10123771;29;20297;-87
2023/03/15 01:03:28;;;;;;;3.60;2.50;;;10.80;99.90;;;;;;10114090;29;20279;-87
2023/03/15 01:08:31;;;;;;;3.77;2.60;;;11.70;99.90;;;;;;10089333;29;20250;-86
2023/03/15 01:13:34;;;;;;;2.93;1.60;;;11.20;99.90;;;;;;10089493;29;20641;-87
2023/03/15 01:18:37;;;;;;;6.43;2.23;;;11.20;99.90;;;;;;10096820;29;20677;-86
2023/03/15 01:23:41;;;;;;;4.00;1.50;;;10.70;99.90;;;;;;10095587;29;20284;-87
2023/03/15 01:28:44;;;;;;;3.27;2.17;;;10.90;99.90;;;;;;10051832;29;20241;-87
2023/03/15 01:33:46;;;;;;;3.97;2.67;;;10.90;99.90;;;;;;10069628;29;20698;-86
2023/03/15 01:38:49;;;;;;;4.60;2.43;;;11.00;99.90;;;;;;10087753;29;20244;-87
2023/03/15 01:43:57;;;;;;;2.73;2.10;;;11.00;99.90;;;;;;10088468;29;20271;-87
2023/03/15 01:49:23;;;;;;;3.80;2.43;;;10.30;99.90;;;;;;10075905;29;20249;-86
2023/03/15 01:55:04;;;;;;;4.97;2.10;;;10.80;99.90;;;;;;10075530;29;20292;-86
2023/03/15 02:00:17;;;;;;;6.27;2.63;;;11.40;99.90;;;;;;10028975;29;21095;-87
2023/03/15 02:05:35;;;;;;;3.80;2.23;;;11.20;99.90;;;;;;10050855;29;20267;-86
2023/03/15 02:10:48;;;;;;;4.67;1.63;;;11.50;99.90;;;;;;10050111;29;20243;-87
2023/03/15 02:15:52;;;;;;;3.50;1.67;;;10.60;99.90;;;;;;10049542;29;20255;-87
2023/03/15 02:21:21;;;;;;;5.83;2.33;;;10.50;99.90;;;;;;10079847;29;20275;-86
2023/03/15 02:26:33;;;;;;;4.13;1.47;;;10.60;99.90;;;;;;10091186;29;20271;-86
2023/03/15 02:31:36;;;;;;;4.40;2.10;;;10.60;99.90;;;;;;10094274;29;20300;-87
2023/03/15 02:36:40;;;;;;;5.63;1.60;;;10.30;99.90;;;;;;10091048;29;20394;-86
2023/03/15 02:41:47;;;;;;;4.13;2.17;;;9.80;99.90;;;;;;10065093;29;20241;-86
2023/03/15 02:46:52;;;;;;;7.00;2.60;;;10.40;99.90;;;;;;10081960;29;20350;-87
2023/03/15 02:51:55;;;;;;;7.33;2.07;;;9.40;99.90;;;;;;10094342;29;20277;-87
2023/03/15 02:56:58;;;;;;;4.80;1.70;;;9.70;99.90;;;;;;10095875;29;20297;-87
2023/03/15 03:02:01;;;;;;;5.13;1.73;;;9.90;99.90;;;;;;10093016;29;21003;-86
2023/03/15 03:07:04;;;;;;;4.27;2.67;;;9.10;99.90;;;;;;10095648;29;20268;-87
2023/03/15 03:12:17;;;;;;;4.27;2.10;;;9.40;99.90;;;;;;10094029;29;20693;-87
2023/03/15 03:17:19;;;;;;;3.90;1.53;;;9.80;99.90;;;;;;10046130;29;20237;-86
2023/03/15 03:22:23;;;;;;;4.67;1.77;;;10.50;99.90;;;;;;10055232;29;20565;-86
2023/03/15 03:27:26;;;;;;;3.17;1.63;;;9.90;99.90;;;;;;10055187;29;20818;-86
2023/03/15 03:32:28;;;;;;;5.73;1.97;;;9.60;99.90;;;;;;10071391;29;20285;-86
2023/03/15 03:37:34;;;;;;;3.37;1.40;;;9.90;99.90;;;;;;10053814;29;20296;-86
2023/03/15 03:42:45;;;;;;;3.27;1.80;;;10.00;99.90;;;;;;10054629;29;20261;-86
2023/03/15 03:47:52;;;;;;;5.10;2.17;;;9.30;99.90;;;;;;10090319;29;20331;-86
2023/03/15 03:52:54;;;;;;;3.50;1.43;;;8.70;99.90;;;;;;10092616;29;20253;-86
2023/03/15 03:58:02;;;;;;;3.97;1.77;;;9.10;99.90;;;;;;10052669;29;20245;-86
2023/03/15 04:03:15;;;;;;;3.87;1.67;;;9.50;99.90;;;;;;10062611;29;20281;-86
2023/03/15 04:08:24;;;;;;;5.83;2.30;;;9.50;99.90;;;;;;10091542;29;20316;-86
2023/03/15 04:13:27;;;;;;;2.90;1.97;;;9.40;99.90;;;;;;10072492;29;20664;-86
2023/03/15 04:18:32;;;;;;;4.27;1.97;;;9.20;99.90;;;;;;10062368;29;20268;-86
2023/03/15 04:23:36;;;;;;;3.23;1.90;;;9.30;99.90;;;;;;10090860;29;20248;-86
2023/03/15 04:28:49;;;;;;;5.97;1.80;;;9.50;99.90;;;;;;10057614;29;20249;-86
2023/03/15 04:34:07;;;;;;;2.20;1.70;;;9.00;99.90;;;;;;10068194;29;20356;-86
2023/03/15 04:39:29;;;;;;;1.83;1.40;;;9.30;99.90;;;;;;10077957;29;20274;-86
2023/03/15 04:44:44;;;;;;;5.03;1.77;;;8.90;99.90;;;;;;10090845;29;20709;-86
2023/03/15 04:50:06;;;;;;;4.27;1.57;;;9.80;99.90;;;;;;10077038;29;20247;-86
2023/03/15 04:55:31;;;;;;;5.17;2.30;;;9.60;99.90;;;;;;10091413;29;20730;-86
2023/03/15 05:00:52;;;;;;;5.67;2.10;;;9.50;99.90;;;;;;10088606;29;20277;-86
2023/03/15 05:06:21;;;;;;;4.83;1.77;;;9.70;99.90;;;;;;10077130;29;20335;-86
2023/03/15 05:11:42;;;;;;;4.23;1.73;;;9.40;99.90;;;;;;10116474;29;20236;-86
2023/03/15 05:17:03;;;;;;;7.73;2.70;;;9.90;99.90;;;;;;10083696;29;20272;-86
2023/03/15 05:22:27;;;;;;;9.20;2.37;;;10.10;99.90;;;;;;10052218;29;20241;-86
2023/03/15 05:27:51;;;;;;;3.23;2.40;;;10.00;99.90;;;;;;10059071;29;20664;-87
2023/03/15 05:33:20;;;;;;;5.90;2.33;;;9.70;99.90;;;;;;10057400;29;20237;-86
2023/03/15 05:38:45;;;;;;;6.83;2.30;;;10.10;99.90;;;;;;10078026;29;20252;-87
2023/03/15 05:44:10;;;;;;;2.70;1.80;;;10.40;99.90;;;;;;10084563;29;20687;-87
2023/03/15 05:49:35;;;;;;;4.90;2.17;;;10.10;99.90;;;;;;10063569;29;20245;-87
2023/03/15 05:54:53;;;;;;;5.90;3.13;;;9.70;99.90;;;;;;10052530;29;20296;-86
2023/03/15 06:00:19;;;;;;;6.10;1.83;;;9.90;99.90;;;;;;10046535;29;20257;-86
2023/03/15 06:05:26;;;;;;;4.43;1.80;;;10.80;76.90;;;;;;10055866;29;20294;-86
2023/03/15 06:10:30;;;;;;;8.10;2.23;;;10.40;78.40;;;;;;10020081;29;20243;-86
2023/03/15 06:15:38;;;;;;;8.87;1.90;;;9.80;85.10;;;;;;10049922;29;20758;-87
2023/03/15 06:20:43;;;;;;;6.37;1.83;;;9.80;83.10;;;;;;10000934;29;20351;-86
2023/03/15 06:25:49;;;;;;;4.30;1.87;;;9.70;86.60;;;;;;10020979;29;20316;-86
2023/03/15 06:30:53;;;;;;;5.47;1.87;;;9.90;91.50;;;;;;10005911;29;20300;-86
2023/03/15 06:36:02;;;;;;;6.17;2.17;;;10.30;82.50;;;;;;10058878;29;20792;-86
2023/03/15 06:41:06;;;;;;;4.97;1.90;;;10.80;86.20;;;;;;10098403;29;20696;-86
2023/03/15 06:46:10;;;;;;;7.50;2.30;;;10.50;88.30;;;;;;10095370;29;20745;-86
2023/03/15 06:51:13;;;;;;;8.97;2.70;;;11.30;85.50;;;;;;10077217;29;20294;-85
2023/03/15 06:56:16;;;;;;;8.40;2.13;;;10.40;87.40;;;;;;10087349;29;20709;-86
2023/03/15 07:01:18;;;;;;;6.07;2.10;;;11.10;87.40;;;;;;10096111;29;20331;-86
2023/03/15 07:06:21;;;;;;;4.87;1.70;;;10.90;90.20;;;;;;10095939;29;20281;-86
2023/03/15 07:11:24;;;;;;;4.93;1.90;;;11.50;83.60;;;;;;10095385;29;20265;-86
2023/03/15 07:16:27;;;;;;;3.73;1.10;;;11.50;86.20;;;;;;10095143;29;20261;-86
2023/03/15 07:21:29;;;;;;;3.73;1.37;;;11.50;92.50;;;;;;10095616;29;20250;-86
2023/03/15 07:26:32;;;;;;;6.67;1.90;;;10.90;90.10;;;;;;10095124;29;20364;-86
2023/03/15 07:31:34;;;;;;;1.73;1.30;;;10.90;90.50;;;;;;10095038;29;20246;-87
2023/03/15 07:36:37;;;;;;;5.57;1.80;;;11.50;93.00;;;;;;10094821;29;20817;-86
2023/03/15 07:41:40;;;;;;;5.33;1.93;;;11.70;82.10;;;;;;10093621;29;20300;-86
2023/03/15 07:46:54;;;;;;;1.67;1.20;;;11.90;87.60;;;;;;10092856;29;20297;-86
2023/03/15 07:51:57;;;;;;;7.17;2.13;;;12.50;91.20;;;;;;10092577;29;20255;-86
2023/03/15 07:57:00;;;;;;;8.40;2.50;;;11.40;83.80;;;;;;10094156;29;20629;-86
2023/03/15 08:02:03;;;;;;;3.70;1.43;;;11.00;75.00;;;;;;10094100;29;20314;-86
2023/03/15 08:07:06;;;;;;;4.43;1.33;;;11.50;98.00;;;;;;10093521;29;20272;-86
2023/03/15 08:12:09;;;;;;;3.23;0.63;;;12.40;93.80;;;;;;10092251;29;20305;-86
2023/03/15 08:17:15;;;;;;;6.60;2.87;;;11.80;95.20;;;;;;10091237;29;20277;-86
2023/03/15 08:22:17;;;;;;;5.30;1.77;;;11.60;73.00;;;;;;10091937;29;20314;-86
2023/03/15 08:27:20;;;;;;;5.73;2.67;;;11.40;94.90;;;;;;10090366;29;20316;-85
2023/03/15 08:32:23;;;;;;;6.07;2.03;;;11.00;86.50;;;;;;10092685;29;20647;-85
2023/03/15 08:37:25;;;;;;;4.43;1.77;;;11.10;90.50;;;;;;10092478;29;20276;-85
2023/03/15 08:42:28;;;;;;;4.33;2.47;;;11.40;93.30;;;;;;10092351;29;20248;-85
2023/03/15 08:47:31;;;;;;;5.17;2.20;;;11.50;93.00;;;;;;10092687;29;20274;-85
2023/03/15 08:52:33;;;;;;;7.87;2.67;;;11.40;93.80;;;;;;10092275;29;20245;-85
2023/03/15 08:57:36;;;;;;;8.50;2.27;;;11.50;88.70;;;;;;10090536;29;20298;-85
2023/03/15 09:02:39;;;;;;;10.00;2.33;;;11.50;94.50;;;;;;10090714;29;20320;-86
2023/03/15 09:07:42;;;;;;;9.37;3.30;;;12.20;81.70;;;;;;10091216;29;20278;-85
2023/03/15 09:12:48;;;;;;;7.97;2.40;;;10.20;91.60;;;;;;10090991;29;20233;-85
2023/03/15 09:17:50;;;;;;;4.63;1.70;;;11.20;84.50;;;;;;10090847;29;20274;-85
2023/03/15 09:22:55;;;;;;;3.93;1.77;;;10.60;95.40;;;;;;10091367;29;20312;-85
2023/03/15 09:27:58;;;;;;;2.93;1.43;;;10.90;95.70;;;;;;10089362;29;20747;-84
2023/03/15 09:33:00;;;;;;;2.93;1.50;;;11.50;92.90;;;;;;10089762;29;20821;-84
2023/03/15 09:38:03;;;;;;;1.33;0.83;;;11.10;96.60;;;;;;10089388;29;20246;-84
2023/03/15 09:43:05;;;;;;;3.77;1.27;;;11.90;98.00;;;;;;10090277;29;20253;-84
2023/03/15 09:48:26;;;;;;;0.90;0.60;;;11.70;95.00;;;;;;10089523;29;20280;-84
2023/03/15 09:54:04;;;;;;;2.37;1.00;;;12.40;93.10;;;;;;10090603;29;20252;-84
2023/03/15 09:59:09;;;;;;;2.97;1.80;;;13.20;93.10;;;;;;10086512;29;20303;-84
2023/03/15 10:04:15;;;;;;;5.33;1.50;;;12.50;85.80;;;;;;10089123;29;20701;-84
2023/03/15 10:09:21;;;;;;;2.20;1.17;;;12.50;89.20;;;;;;10090086;29;20289;-84
2023/03/15 10:14:27;;;;;;;2.97;1.93;;;11.00;94.30;;;;;;10088584;29;20263;-84
2023/03/15 10:19:45;;;;;;;4.23;1.47;;;12.20;69.70;;;;;;10088383;29;20281;-85
2023/03/15 10:24:58;;;;;;;5.20;1.47;;;11.30;92.30;;;;;;10089826;29;20278;-84
2023/03/15 10:30:11;;;;;;;3.27;1.43;;;12.20;88.20;;;;;;10088909;29;20269;-85
2023/03/15 10:35:16;;;;;;;3.13;0.93;;;12.30;85.70;;;;;;10089981;29;20256;-85
2023/03/15 10:40:58;;;;;;;5.90;1.40;;;12.50;89.60;;;;;;10089886;29;20273;-85
2023/03/15 10:46:07;;;;;;;3.10;1.37;;;12.90;69.20;;;;;;10046571;29;20280;-85
2023/03/15 10:51:22;;;;;;;2.73;1.50;;;11.50;82.10;;;;;;10053390;29;20359;-85
2023/03/15 10:56:31;;;;;;;4.37;1.10;;;10.60;72.00;;;;;;10051276;29;20266;-85
2023/03/15 11:01:33;;;;;;;3.20;1.17;;;11.50;94.00;;;;;;10066888;29;20335;-85
2023/03/15 11:06:43;;;;;;;3.70;1.53;;;11.50;94.70;;;;;;10081124;29;20808;-85
2023/03/15 11:11:58;;;;;;;14.37;8.30;;;11.40;73.40;;;;;;10090376;29;20724;-85
2023/03/15 11:17:04;;;;;;;3.07;1.27;;;9.60;70.00;;;;;;10115606;29;20356;-85
2023/03/15 11:22:11;;;;;;;3.23;1.10;;;8.80;94.10;;;;;;10110204;29;20883;-85
2023/03/15 11:27:17;;;;;;;3.17;1.00;;;9.40;96.80;;;;;;10092387;29;20273;-86
2023/03/15 11:32:23;;;;;;;4.70;1.20;;;9.90;92.50;;;;;;10092199;29;20773;-85
2023/03/15 11:37:54;;;;;;;4.30;1.03;;;11.50;79.50;;;;;;10090968;29;20252;-85
2023/03/15 11:43:50;;;;;;;2.87;1.20;;;12.20;78.80;;;;;;10091188;29;20648;-85
2023/03/15 11:49:00;;;;;;;2.87;1.07;;;11.80;49.10;;;;;;10048156;29;20393;-85
2023/03/15 11:54:16;;;;;;;2.40;1.07;;;12.60;67.90;;;;;;10048553;29;20249;-85
2023/03/15 11:59:32;;;;;;;2.60;0.93;;;12.20;56.60;;;;;;10046844;29;20728;-85
2023/03/15 12:04:35;;;;;;;1.53;0.80;;;12.70;72.60;;;;;;10048378;29;20287;-86
2023/03/15 12:09:44;;;;;;;7.30;2.30;;;11.20;85.50;;;;;;10032453;29;20739;-85
2023/03/15 12:14:47;;;;;;;7.97;2.17;;;9.80;54.40;;;;;;10047779;29;20640;-86
2023/03/15 12:20:18;;;;;;;2.97;1.03;;;8.90;71.10;;;;;;10004740;29;1298443;-86
2023/03/15 12:25:30;;;;;;;1.10;1.00;;;8.90;99.90;;;;;;10053270;29;20715;-86
2023/03/15 12:30:55;;;;;;;2.23;1.03;;;10.70;96.90;;;;;;10052911;29;20705;-85
2023/03/15 12:36:15;;;;;;;2.90;1.10;;;11.50;78.90;;;;;;10054301;29;20243;-85
2023/03/15 12:41:48;;;;;;;3.37;1.43;;;12.80;81.60;;;;;;10053835;29;20245;-85
2023/03/15 12:46:51;;;;;;;4.33;1.37;;;12.30;92.50;;;;;;10038058;29;20280;-86
2023/03/15 12:51:58;;;;;;;1.60;1.13;;;12.10;92.70;;;;;;10052632;29;20248;-86
2023/03/15 12:57:03;;;;;;;3.17;1.50;;;12.80;90.00;;;;;;10053639;29;20257;-85
2023/03/15 13:02:27;;;;;;;1.80;0.70;;;13.10;73.40;;;;;;10053364;29;20244;-86
2023/03/15 13:07:57;;;;;;;2.67;1.27;;;13.20;79.60;;;;;;10053084;29;20293;-85
2023/03/15 13:13:07;;;;;;;1.57;0.80;;;13.30;78.80;;;;;;10076498;29;20275;-86
2023/03/15 13:18:33;;;;;;;4.67;1.60;;;13.40;77.70;;;;;;10090230;29;20663;-85
2023/03/15 13:23:36;;;;;;;4.57;1.37;;;10.00;79.40;;;;;;10089558;29;20236;-85
2023/03/15 13:28:57;;;;;;;6.70;1.47;;;7.80;83.30;;;;;;10088192;29;20268;-85
2023/03/15 13:34:23;;;;;;;4.90;2.57;;;6.70;95.00;;;;;;10101134;29;20210;-85
2023/03/15 13:39:29;;;;;;;3.07;1.20;;;5.80;98.80;;;;;;10089699;29;20249;-85
2023/03/15 13:44:32;;;;;;;1.90;1.37;;;5.60;99.90;;;;;;10089312;29;20315;-85
2023/03/15 13:49:35;;;;;;;6.00;1.73;;;5.60;99.90;;;;;;10089162;29;20297;-85
2023/03/15 13:54:38;;;;;;;4.47;1.70;;;5.00;99.90;;;;;;10089497;29;20245;-85
2023/03/15 14:00:00;;;;;;;4.30;1.60;;;4.90;99.90;;;;;;10110073;29;20649;-85
2023/03/15 14:05:09;;;;;;;4.70;1.50;;;4.90;99.90;;;;;;10128819;29;20252;-85
2023/03/15 14:10:33;;;;;;;3.47;1.17;;;5.50;99.90;;;;;;10128497;29;20292;-85
2023/03/15 14:15:41;;;;;;;1.43;1.07;;;5.50;99.90;;;;;;10128563;29;20291;-85
2023/03/15 14:20:46;;;;;;;1.93;1.03;;;6.40;99.90;;;;;;10099199;29;20806;-85
2023/03/15 14:25:54;;;;;;;2.20;1.60;;;5.70;99.00;;;;;;10096976;29;20691;-86
2023/03/15 14:30:58;;;;;;;3.30;0.97;;;6.10;99.90;;;;;;10097078;29;20296;-86
2023/03/15 14:36:04;;;;;;;5.50;0.90;;;7.80;99.90;;;;;;10095736;29;20307;-84
2023/03/15 14:41:31;;;;;;;7.67;2.07;;;9.60;99.90;;;;;;10095700;29;20239;-84
2023/03/15 14:46:35;;;;;;;2.17;0.80;;;10.10;93.00;;;;;;10089389;29;20714;-82
2023/03/15 14:51:37;;;;;;;3.17;1.73;;;9.30;97.90;;;;;;10057882;29;20242;-81
2023/03/15 14:56:40;;;;;;;5.40;2.70;;;9.80;90.10;;;;;;10067421;29;20249;-82
2023/03/15 15:01:50;;;;;;;2.47;1.50;;;9.80;92.50;;;;;;10062545;29;20662;-82
2023/03/15 15:06:54;;;;;;;5.00;2.90;;;10.70;97.50;;;;;;10073711;29;20581;-82
2023/03/15 15:11:57;;;;;;;6.67;2.27;;;10.50;84.80;;;;;;10089696;29;20309;-82
2023/03/15 15:17:00;;;;;;;4.83;2.13;;;10.50;95.50;;;;;;10067892;29;20324;-82
2023/03/15 15:22:02;;;;;;;3.00;2.20;;;9.50;91.40;;;;;;10057026;29;20263;-81
2023/03/15 15:27:08;;;;;;;6.20;1.87;;;9.50;93.10;;;;;;10056667;29;20273;-81
2023/03/15 15:32:10;;;;;;;3.97;2.13;;;9.10;97.90;;;;;;10056678;29;20317;-83
2023/03/15 15:37:14;;;;;;;5.23;3.63;;;10.00;99.90;;;;;;10066428;29;20236;-84
2023/03/15 15:42:16;;;;;;;7.20;3.83;;;9.20;90.60;;;;;;10079526;29;20326;-83
2023/03/15 15:47:19;;;;;;;9.33;4.77;;;10.10;95.50;;;;;;10087032;29;20235;-85
2023/03/15 15:52:22;;;;;;;4.37;2.20;;;9.90;94.50;;;;;;10058842;29;20271;-83
2023/03/15 15:57:25;;;;;;;3.10;2.07;;;9.00;97.80;;;;;;10059149;29;20250;-83
2023/03/15 16:02:27;;;;;;;3.47;2.33;;;10.40;99.90;;;;;;10056417;29;20254;-85
2023/03/15 16:07:30;;;;;;;7.90;2.63;;;9.70;86.40;;;;;;10065770;29;20274;-84
2023/03/15 16:12:34;;;;;;;6.40;2.90;;;8.30;84.30;;;;;;10111285;29;20271;-85
2023/03/15 16:17:37;;;;;;;6.13;2.37;;;8.40;94.30;;;;;;10078459;29;20787;-85
2023/03/15 16:22:44;;;;;;;12.03;4.13;;;9.60;96.10;;;;;;10087311;29;20303;-84
2023/03/15 16:27:46;;;;;;;12.50;4.03;;;9.00;67.60;;;;;;10090617;29;20259;-84
2023/03/15 16:32:53;;;;;;;10.20;4.63;;;8.50;79.10;;;;;;10083605;29;20252;-85
2023/03/15 16:37:57;;;;;;;7.70;4.07;;;8.00;90.30;;;;;;10092083;29;20628;-84
2023/03/15 16:43:00;;;;;;;7.57;4.10;;;7.90;91.80;;;;;;10100870;29;20714;-85
2023/03/15 16:48:03;;;;;;;7.83;4.10;;;7.70;91.10;;;;;;10115677;29;20273;-84
2023/03/15 16:53:08;;;;;;;8.43;3.57;;;7.50;90.70;;;;;;10116232;29;20236;-84
2023/03/15 16:58:20;;;;;;;8.40;3.90;;;7.20;93.10;;;;;;10060909;29;20248;-84
2023/03/15 17:03:24;;;;;;;8.03;3.67;;;5.40;93.00;;;;;;10064512;29;20353;-84
2023/03/15 17:08:27;;;;;;;16.13;6.97;;;5.40;99.90;;;;;;10052473;29;20269;-86
2023/03/15 17:13:31;;;;;;;18.35;6.90;;;5.10;93.80;;;;;;10077959;29;21040;-83
2023/03/15 17:18:34;;;;;;;16.90;6.17;;;3.80;99.90;;;;;;10070617;29;20654;-83
2023/03/15 17:23:37;;;;;;;11.17;4.47;;;4.50;99.90;;;;;;10055174;29;20245;-83
2023/03/15 17:28:40;;;;;;;11.67;5.93;;;5.40;99.90;;;;;;10073530;29;20336;-85
2023/03/15 17:34:01;;;;;;;37.70;9.63;;;5.60;99.90;;;;;;10075430;29;20292;-85
2023/03/15 17:39:05;;;;;;;44.70;13.80;;;7.40;91.90;;;;;;10090155;29;21069;-86
2023/03/15 17:44:11;;;;;;;49.90;14.23;;;6.40;90.50;;;;;;10088217;29;20696;-86
2023/03/15 17:49:15;;;;;;;42.33;13.20;;;5.60;93.50;;;;;;10089072;29;20716;-86
2023/03/15 17:54:19;;;;;;;33.67;10.53;;;5.00;95.90;;;;;;10063439;29;20311;-85
2023/03/15 17:59:22;;;;;;;33.23;9.17;;;4.70;98.40;;;;;;10051157;29;20710;-85
2023/03/15 18:04:24;;;;;;;26.90;9.77;;;4.40;98.90;;;;;;10064517;29;20439;-86
2023/03/15 18:09:27;;;;;;;26.50;13.43;;;3.80;99.90;;;;;;10053327;29;20274;-86
2023/03/15 18:14:35;;;;;;;30.93;14.77;;;3.30;99.90;;;;;;10085087;29;20785;-87
2023/03/15 18:19:38;;;;;;;33.43;15.73;;;2.50;99.90;;;;;;10087838;29;20266;-87
2023/03/15 18:24:41;;;;;;;51.33;19.83;;;1.90;99.90;;;;;;10088427;29;20254;-87
2023/03/15 18:29:43;;;;;;;42.57;16.20;;;1.60;99.90;;;;;;10065568;29;20319;-86
2023/03/15 18:34:46;;;;;;;50.67;17.73;;;1.40;99.90;;;;;;10054613;29;20587;-87
2023/03/15 18:39:48;;;;;;;41.03;15.87;;;1.20;99.90;;;;;;10079156;29;20691;-87
2023/03/15 18:44:51;;;;;;;39.50;14.90;;;1.10;99.90;;;;;;9746881;29;10000279;-87
2023/03/15 18:49:54;;;;;;;54.87;18.60;;;1.00;99.90;;;;;;10078672;29;20264;-86
2023/03/15 18:55:07;;;;;;;43.90;15.40;;;1.20;99.90;;;;;;10082640;29;20246;-87
2023/03/15 19:00:13;;;;;;;37.97;15.67;;;1.50;99.90;;;;;;10065951;29;20772;-86
2023/03/15 19:05:16;;;;;;;61.40;25.43;;;2.00;99.90;;;;;;10083387;29;20259;-86
2023/03/15 19:10:20;;;;;;;39.13;22.13;;;1.80;99.90;;;;;;10089350;29;20267;-86
2023/03/15 19:15:23;;;;;;;47.20;22.97;;;1.70;99.90;;;;;;10089786;29;20249;-86
2023/03/15 19:20:25;;;;;;;61.40;24.90;;;1.40;99.90;;;;;;10091558;29;20328;-87
2023/03/15 19:25:28;;;;;;;44.73;20.40;;;1.00;99.90;;;;;;10089308;29;20256;-84
2023/03/15 19:30:31;;;;;;;50.47;24.67;;;3.30;99.90;;;;;;10057392;29;20271;-84
2023/03/15 19:35:34;;;;;;;54.57;27.70;;;3.50;99.90;;;;;;10069751;29;20290;-84
2023/03/15 19:40:37;;;;;;;55.70;27.63;;;2.60;99.90;;;;;;10085434;29;20274;-84
2023/03/15 19:45:40;;;;;;;50.00;26.37;;;2.40;99.90;;;;;;10052498;29;20251;-84
2023/03/15 19:50:43;;;;;;;46.83;23.20;;;1.40;99.90;;;;;;10082847;29;20267;-84
2023/03/15 19:55:45;;;;;;;54.83;27.10;;;1.70;99.90;;;;;;10066460;29;20245;-84
2023/03/15 20:00:49;;;;;;;64.47;33.23;;;2.10;99.90;;;;;;10090866;29;20315;-84
2023/03/15 20:05:51;;;;;;;66.80;38.33;;;2.00;99.90;;;;;;10076059;29;20308;-84
2023/03/15 20:11:02;;;;;;;61.43;33.33;;;1.80;99.90;;;;;;10061808;29;20684;-84
2023/03/15 20:16:05;;;;;;;59.50;30.73;;;1.50;99.90;;;;;;10080751;29;20647;-84
2023/03/15 20:21:09;;;;;;;71.63;35.53;;;1.30;99.90;;;;;;10051727;29;20677;-84
2023/03/15 20:26:14;;;;;;;74.53;36.03;;;1.00;99.90;;;;;;10059595;29;20257;-84
2023/03/15 20:31:18;;;;;;;73.13;36.37;;;0.60;99.90;;;;;;10074858;29;20296;-84
2023/03/15 20:36:21;;;;;;;72.97;35.67;;;0.40;99.90;;;;;;10052871;29;20246;-84
2023/03/15 20:41:23;;;;;;;81.57;41.90;;;0.40;99.90;;;;;;10034610;29;20274;-85
2023/03/15 20:46:26;;;;;;;87.23;41.63;;;0.30;99.90;;;;;;10080391;29;20639;-85
2023/03/15 20:51:29;;;;;;;95.10;43.37;;;0.00;99.90;;;;;;10089484;29;20308;-85
2023/03/15 20:56:33;;;;;;;88.03;44.33;;;-0.20;99.90;;;;;;10088997;29;20743;-85
2023/03/15 21:01:35;;;;;;;89.00;41.13;;;-0.10;99.90;;;;;;10070833;29;20253;-84
2023/03/15 21:06:38;;;;;;;77.67;37.80;;;-0.20;99.90;;;;;;10078367;29;20273;-84
2023/03/15 21:11:41;;;;;;;71.70;34.50;;;-0.40;99.90;;;;;;10060644;29;20745;-84
2023/03/15 21:16:44;;;;;;;60.30;32.27;;;-0.40;99.90;;;;;;10104619;29;20316;-84
2023/03/15 21:21:46;;;;;;;62.37;31.70;;;-0.40;99.90;;;;;;10090298;29;20313;-84
2023/03/15 21:26:53;;;;;;;68.47;34.70;;;-0.20;99.90;;;;;;10053446;29;20251;-84
2023/03/15 21:31:57;;;;;;;78.40;35.77;;;-0.20;99.90;;;;;;10050780;29;20281;-84
2023/03/15 21:37:01;;;;;;;140.33;63.60;;;-0.40;99.90;;;;;;10070614;29;20237;-83
2023/03/15 21:42:04;;;;;;;103.13;48.13;;;-1.50;99.90;;;;;;10083889;29;20244;-83
2023/03/15 21:47:07;;;;;;;108.87;50.97;;;-1.40;99.90;;;;;;10084525;29;20257;-84
2023/03/15 21:52:11;;;;;;;143.43;61.23;;;-1.30;99.90;;;;;;10082650;29;20312;-83
2023/03/15 21:57:13;;;;;;;141.63;64.23;;;-1.00;99.90;;;;;;10100052;29;20317;-84
2023/03/15 22:02:16;;;;;;;150.60;64.47;;;-0.90;99.90;;;;;;10105391;29;20249;-84
2023/03/15 22:07:19;;;;;;;81.73;43.13;;;-0.70;99.90;;;;;;10078360;29;20282;-84
2023/03/15 22:12:24;;;;;;;80.47;41.87;;;1.00;99.90;;;;;;10060918;29;20732;-84
2023/03/15 22:17:26;;;;;;;96.50;47.47;;;2.00;99.90;;;;;;10082957;29;20252;-83
2023/03/15 22:22:30;;;;;;;97.83;47.17;;;1.70;99.90;;;;;;10106912;29;20681;-84
2023/03/15 22:27:33;;;;;;;93.13;44.23;;;0.60;99.90;;;;;;10108688;29;21056;-84
2023/03/15 22:32:35;;;;;;;85.80;43.73;;;0.10;99.90;;;;;;10075484;29;20728;-84
2023/03/15 22:37:38;;;;;;;88.80;42.97;;;-0.20;99.90;;;;;;10075509;29;20253;-83
2023/03/15 22:42:42;;;;;;;79.50;41.20;;;-0.20;99.90;;;;;;10089448;29;20344;-84
2023/03/15 22:47:45;;;;;;;83.23;41.70;;;-0.10;99.90;;;;;;10098038;29;20269;-83
2023/03/15 22:52:50;;;;;;;51.70;27.33;;;0.50;99.90;;;;;;10112671;29;20264;-83
2023/03/15 22:57:53;;;;;;;51.00;25.47;;;1.50;99.90;;;;;;10112765;29;20264;-83
2023/03/15 23:02:55;;;;;;;53.40;26.47;;;2.60;99.90;;;;;;10112218;29;20251;-83
2023/03/15 23:07:58;;;;;;;37.70;21.83;;;2.20;99.90;;;;;;10109349;29;20771;-83
2023/03/15 23:13:02;;;;;;;38.50;20.87;;;1.30;99.90;;;;;;10100596;29;20266;-83
2023/03/15 23:18:05;;;;;;;33.37;18.23;;;1.40;99.90;;;;;;10094907;29;20272;-83
2023/03/15 23:23:08;;;;;;;36.67;18.60;;;2.60;99.90;;;;;;10094548;29;20307;-82
2023/03/15 23:28:10;;;;;;;36.50;19.03;;;3.60;99.90;;;;;;10092244;29;20270;-83
2023/03/15 23:33:13;;;;;;;39.87;19.37;;;4.30;99.90;;;;;;10094672;29;20314;-83
2023/03/15 23:38:15;;;;;;;34.87;17.67;;;3.70;99.90;;;;;;10073923;29;20239;-83
2023/03/15 23:43:18;;;;;;;33.47;17.70;;;3.20;99.90;;;;;;10075698;29;20240;-83
2023/03/15 23:48:21;;;;;;;44.73;20.80;;;2.40;99.90;;;;;;10055970;29;20320;-83
2023/03/15 23:53:24;;;;;;;48.30;24.13;;;1.40;99.90;;;;;;10104885;29;20236;-83
2023/03/15 23:58:28;;;;;;;39.60;20.47;;;1.30;99.90;;;;;;10093791;29;20245;-83
